Winthrop, IN

1:26 AM EST on February 22, 2017 (GMT -0500)
Warren County, IN | | Change Station

Elev 615 ft 40.35 °N, 87.21 °W | Updated 1 minute ago

Partly Cloudy
Partly Cloudy
50.5 °F
Feels Like 50.5 °F
N
0.0
Wind Variable Wind from SSE
Gusts 1.0 mph

Today
High -- | Low -- °F
--% Chance of Precip.
Yesterday
High -- | Low -- °F
Precip. -- in
Pressure 29.88 in
Visibility 9.0 miles
Clouds Mostly Cloudy 3200 ft
Mostly Cloudy 4000 ft
Mostly Cloudy 6000 ft
Dew Point 49 °F
Humidity 96%
Rainfall 0.00 in
Snow Depth Not available.
7:32 AM 6:32 PM
Waning Crescent, 19% visible
METAR KLAF 220554Z AUTO 18006KT 9SM BKN032 BKN040 BKN060 13/11 A2989 RMK AO2 SLP119 T01280106 10139 20111 58014
Pressure 29.88 in
Visibility 9.0 miles
Clouds Mostly Cloudy 3200 ft
Mostly Cloudy 4000 ft
Mostly Cloudy 6000 ft
Dew Point 49 °F
Humidity 96%
Rainfall 0.00 in
Snow Depth Not available.
7:32 AM 6:32 PM
Waning Crescent, 19% visible
METAR KLAF 220554Z AUTO 18006KT 9SM BKN032 BKN040 BKN060 13/11 A2989 RMK AO2 SLP119 T01280106 10139 20111 58014

Get Your Daily Forecast Email!

Thanks for signing up!

Be on the lookout for a verification email in your inbox.

You'll start receiving the daily forecast at 8 AM.

×

10-Day Weather Forecast

Almanac

Astronomy

Feb. 22, 2017 Rise Set
Actual Time
Civil Twilight
Nautical Twilight
Astronomical Twilight
Moon
Length of Visible Light
Length of Day
Tomorrow will be .
, % of the Moon is Illuminated

Today's Extremes

State Highs State Lows

Community

WunderPhotos

Upload Photos

1,962,540 photos uploaded!

WunderBlog® & News

Nearby

Air Quality

  Air Quality AQ Index Pollutant
Not available.

Snow Depth

Station Depth Elevation

Earthquake Activity

City Distance Mag. Time & Date
Minimum magnitude displayed is 2.5.

Coastal Water Temperatures

Place Temperature

Stations

Nearby Weather Stations

Station Location Temp. Windchill Dew Point Humidity Wind Precip. Elev Updated Type
                   

Watches & Warnings

There are currently no watches in effect.